Artesia, California
Current Conditions -  °F | °C
As of 12:53 PM on Tuesday 21 Oct 2014 (Local Time) from KFUL Reporting Station
Haze Haze  
Wind Chill: 76°   Ceiling: Unl
Heat Index: 76°   Visibility: 6mi
Dew Point: 59°   Wind: 5mph
Humidity: 56%   Direction: NA
Pressure: 29.88"   Gusts: NA
Location:  33.86°N, 118.07°W
Report Text: KFUL 211953Z VRB04KT 6SM HZ CLR 24/15 A2988 RMK AO2 SLP116 T02440150
Loading
Personal Weather Stations






























Interactive Weather Map
Tropical Storm Tracking
New forecast layout! Learn more

10-Day Weather Forecast

Advertisements
Track Severe Weather on mobile